Rejestracja

Wszystkie dane podawane są w czasie UTC za wyjątkiem miejsc gdzie jest jednoznacznie podane, że jest inaczej. Dane podawane w serwisie mają charakter informacyjny!!!
Informacje w sprawie dostępu do serwisu pod numerem tel. +48 261-828-559 lub +48 261-828-138
Informacja dla żołnierzy i pracowników wojska: Prosimy o niezwłoczną zmianę adresu e-mail w profilu użytkownika na pocztę w domenie @ron.mil.pl
Brak służbowego adresu e-mail skutkuje usunięciem konta.

Aktualna Pogoda
 
Pogoda w Polsce
17°C Szczecin 13°C Suwałki 19°C Warszawa 21°C Poznan
20°C Opole 21°C Kraków 15°C Rzeszów
Więcej miast w Polsce

Pogoda w Europie
19°C Berlin 19°C Paryz 17°C Bruksela 12°C Oslo
23°C Praga 21°C Zagrzeb
Więcej miast w Europie

Metary wojskowe test
METAR EPBC 201400Z AUTO 21006KT 170V230 CAVOK 19/10 Q1008=
METAR EPCE 201430Z 22013KT CAVOK 17/10 Q1000 RMK 166 064 0/0=
METAR EPDA 201430Z 21017KT 9999 BKN090 OVC110 17/10 Q0998 RMK 172 063 8/6=
METAR EPDE 201430Z 19008KT CAVOK 19/11 Q1010 RMK 186 062 7/2=
METAR EPIR 201430Z 19016KT CAVOK 19/10 Q1004 RMK 190 056 7/7=
METAR EPKS 201430Z 22009KT 180V250 9999 OVC110 20/07 Q1006 RMK 204 043 8/8=
METAR EPLK 201430Z 21009KT 170V240 CAVOK 18/14 Q1009 RMK 183 075 7/2=
METAR EPLY 201430Z 21010KT CAVOK 19/11 Q1007 RMK 187 062 7/3=
METAR EPMB 201430Z 20014G24KT 9999 BKN110 17/13 Q1002 RMK 170 077 7/7=
METAR EPMI 201430Z 20010G24KT 170V240 9999 BKN100 16/10 Q1002 RMK 157 067 5/5=
METAR EPMM 201430Z 23012KT 190V250 9999 BKN200 18/12 Q1008 RMK 177 068 7/7=
METAR EPNA 201430Z 22004KT 9999 BKN100 16/11 Q1002 RMK 157 071 6/6=
METAR EPOK 201430Z 22016KT 180V240 CAVOK 18/10 Q0998 RMK 176 062 3/3=
METAR EPPR 201430Z 20016KT 9999 BKN116 17/11 Q1000 RMK 173 066 6/6=
METAR EPPW 201400Z 21012KT CAVOK 21/09 Q1006 RMK 206 046 7/2=
METAR EPSN 201400Z 21014KT 180V240 9999 BKN100 16/10 Q1001 RMK 158 067 5/5=
METAR EPTM 201400Z 17006KT CAVOK 19/11 Q1009 RMK 191 060 6/6=


 

Prawa autorskie©2007 SSH SZ RP. Wszelkie prawa zastrzeżone.